sensor_id;sensor_type;location;lat;lon;timestamp;pressure;altitude;pressure_sealevel;temperature;humidity
20909;BME280;10614;53.198;6.570;2023-05-12T00:00:28;101792.03;;;10.97;100.00
20909;BME280;10614;53.198;6.570;2023-05-12T00:02:33;101793.78;;;10.98;100.00
20909;BME280;10614;53.198;6.570;2023-05-12T00:04:35;101758.34;;;10.77;100.00
20909;BME280;10614;53.198;6.570;2023-05-12T00:06:38;101780.63;;;10.96;100.00
20909;BME280;10614;53.198;6.570;2023-05-12T00:08:40;101789.41;;;10.97;100.00
20909;BME280;10614;53.198;6.570;2023-05-12T00:10:43;101752.25;;;10.73;100.00
20909;BME280;10614;53.198;6.570;2023-05-12T00:12:45;101781.50;;;10.97;100.00
20909;BME280;10614;53.198;6.570;2023-05-12T00:14:49;101772.88;;;10.90;100.00
20909;BME280;10614;53.198;6.570;2023-05-12T00:16:51;101763.31;;;10.86;100.00
20909;BME280;10614;53.198;6.570;2023-05-12T00:18:57;101756.50;;;10.79;100.00
20909;BME280;10614;53.198;6.570;2023-05-12T00:20:59;101784.16;;;10.95;100.00
20909;BME280;10614;53.198;6.570;2023-05-12T00:23:02;101763.16;;;10.94;100.00
20909;BME280;10614;53.198;6.570;2023-05-12T00:25:04;101797.75;;;11.13;100.00
20909;BME280;10614;53.198;6.570;2023-05-12T00:27:07;101789.81;;;11.14;100.00
20909;BME280;10614;53.198;6.570;2023-05-12T00:29:09;101779.41;;;11.10;100.00
20909;BME280;10614;53.198;6.570;2023-05-12T00:31:13;101788.09;;;11.12;100.00
20909;BME280;10614;53.198;6.570;2023-05-12T00:33:15;101756.22;;;10.90;100.00
20909;BME280;10614;53.198;6.570;2023-05-12T00:35:20;101759.59;;;10.95;100.00
20909;BME280;10614;53.198;6.570;2023-05-12T00:37:26;101790.63;;;11.16;100.00
20909;BME280;10614;53.198;6.570;2023-05-12T00:39:31;101780.22;;;11.12;100.00
20909;BME280;10614;53.198;6.570;2023-05-12T00:41:33;101759.53;;;10.98;100.00
20909;BME280;10614;53.198;6.570;2023-05-12T00:43:37;101759.44;;;11.01;100.00
20909;BME280;10614;53.198;6.570;2023-05-12T00:45:40;101762.06;;;11.01;100.00
20909;BME280;10614;53.198;6.570;2023-05-12T00:47:44;101765.41;;;11.08;100.00
20909;BME280;10614;53.198;6.570;2023-05-12T00:49:49;101761.81;;;11.10;100.00
20909;BME280;10614;53.198;6.570;2023-05-12T00:51:53;101782.59;;;11.21;100.00
20909;BME280;10614;53.198;6.570;2023-05-12T00:53:56;101756.72;;;11.04;100.00
20909;BME280;10614;53.198;6.570;2023-05-12T00:55:59;101782.59;;;11.21;100.00
20909;BME280;10614;53.198;6.570;2023-05-12T00:58:01;101734.09;;;10.95;100.00
20909;BME280;10614;53.198;6.570;2023-05-12T01:00:08;101748.06;;;10.99;100.00
20909;BME280;10614;53.198;6.570;2023-05-12T01:02:10;101783.34;;;11.26;100.00
20909;BME280;10614;53.198;6.570;2023-05-12T01:04:14;101769.38;;;11.23;100.00
20909;BME280;10614;53.198;6.570;2023-05-12T01:06:25;101775.34;;;11.29;100.00
20909;BME280;10614;53.198;6.570;2023-05-12T01:08:30;101781.50;;;11.28;100.00
20909;BME280;10614;53.198;6.570;2023-05-12T01:10:41;101750.31;;;11.14;100.00
20909;BME280;10614;53.198;6.570;2023-05-12T01:12:44;101778.88;;;11.28;100.00
20909;BME280;10614;53.198;6.570;2023-05-12T01:14:48;101743.44;;;11.07;100.00
20909;BME280;10614;53.198;6.570;2023-05-12T01:16:52;101759.06;;;11.15;100.00
20909;BME280;10614;53.198;6.570;2023-05-12T01:18:57;101764.94;;;11.25;100.00
20909;BME280;10614;53.198;6.570;2023-05-12T01:21:04;101779.66;;;11.32;100.00
20909;BME280;10614;53.198;6.570;2023-05-12T01:23:06;101783.16;;;11.32;100.00
20909;BME280;10614;53.198;6.570;2023-05-12T01:25:10;101751.06;;;11.18;100.00
20909;BME280;10614;53.198;6.570;2023-05-12T01:27:16;101749.28;;;11.18;100.00
20909;BME280;10614;53.198;6.570;2023-05-12T01:29:19;101773.47;;;11.33;100.00
20909;BME280;10614;53.198;6.570;2023-05-12T01:31:22;101786.63;;;11.34;100.00
20909;BME280;10614;53.198;6.570;2023-05-12T01:33:25;101750.25;;;11.16;100.00
20909;BME280;10614;53.198;6.570;2023-05-12T01:35:28;101783.00;;;11.38;100.00
20909;BME280;10614;53.198;6.570;2023-05-12T01:37:34;101783.81;;;11.40;100.00
20909;BME280;10614;53.198;6.570;2023-05-12T01:39:37;101778.72;;;11.34;100.00
20909;BME280;10614;53.198;6.570;2023-05-12T01:41:45;101766.41;;;11.35;100.00
20909;BME280;10614;53.198;6.570;2023-05-12T01:43:48;101773.28;;;11.40;100.00
20909;BME280;10614;53.198;6.570;2023-05-12T01:45:51;101745.63;;;11.24;100.00
20909;BME280;10614;53.198;6.570;2023-05-12T01:47:53;101758.69;;;11.29;100.00
20909;BME280;10614;53.198;6.570;2023-05-12T01:49:56;101742.09;;;11.24;100.00
20909;BME280;10614;53.198;6.570;2023-05-12T01:51:58;101778.28;;;11.50;100.00
20909;BME280;10614;53.198;6.570;2023-05-12T01:54:01;101777.38;;;11.51;100.00
20909;BME280;10614;53.198;6.570;2023-05-12T01:56:06;101781.88;;;11.47;100.00
20909;BME280;10614;53.198;6.570;2023-05-12T01:58:08;101784.34;;;11.52;100.00
20909;BME280;10614;53.198;6.570;2023-05-12T02:00:13;101753.19;;;11.36;100.00
20909;BME280;10614;53.198;6.570;2023-05-12T02:02:16;101772.22;;;11.46;100.00
20909;BME280;10614;53.198;6.570;2023-05-12T02:04:19;101780.94;;;11.50;100.00
20909;BME280;10614;53.198;6.570;2023-05-12T02:06:21;101787.09;;;11.49;100.00
20909;BME280;10614;53.198;6.570;2023-05-12T02:08:25;101763.81;;;11.33;100.00
20909;BME280;10614;53.198;6.570;2023-05-12T02:10:27;101757.66;;;11.33;100.00
20909;BME280;10614;53.198;6.570;2023-05-12T02:14:44;101774.25;;;11.38;100.00
20909;BME280;10614;53.198;6.570;2023-05-12T02:16:50;101775.69;;;11.48;100.00
20909;BME280;10614;53.198;6.570;2023-05-12T02:18:52;101793.16;;;11.52;100.00
20909;BME280;10614;53.198;6.570;2023-05-12T02:20:54;101781.94;;;11.44;100.00
20909;BME280;10614;53.198;6.570;2023-05-12T02:22:56;101807.09;;;11.56;100.00
20909;BME280;10614;53.198;6.570;2023-05-12T02:25:02;101791.47;;;11.50;100.00
20909;BME280;10614;53.198;6.570;2023-05-12T02:27:08;101807.16;;;11.54;100.00
20909;BME280;10614;53.198;6.570;2023-05-12T02:29:13;101803.72;;;11.51;100.00
20909;BME280;10614;53.198;6.570;2023-05-12T02:31:15;101800.13;;;11.55;100.00
20909;BME280;10614;53.198;6.570;2023-05-12T02:33:22;101803.59;;;11.55;100.00
20909;BME280;10614;53.198;6.570;2023-05-12T02:35:24;101797.41;;;11.56;100.00
20909;BME280;10614;53.198;6.570;2023-05-12T02:37:26;101775.91;;;11.40;100.00
20909;BME280;10614;53.198;6.570;2023-05-12T02:39:28;101799.38;;;11.50;100.00
20909;BME280;10614;53.198;6.570;2023-05-12T02:41:30;101801.09;;;11.51;100.00
20909;BME280;10614;53.198;6.570;2023-05-12T02:43:31;101777.63;;;11.41;100.00
20909;BME280;10614;53.198;6.570;2023-05-12T02:45:34;101788.72;;;11.54;100.00
20909;BME280;10614;53.198;6.570;2023-05-12T02:47:35;101793.03;;;11.57;100.00
20909;BME280;10614;53.198;6.570;2023-05-12T02:49:39;101788.72;;;11.54;100.00
20909;BME280;10614;53.198;6.570;2023-05-12T02:51:43;101788.72;;;11.54;100.00
20909;BME280;10614;53.198;6.570;2023-05-12T02:53:45;101790.41;;;11.55;100.00
20909;BME280;10614;53.198;6.570;2023-05-12T02:55:47;101795.72;;;11.54;100.00
20909;BME280;10614;53.198;6.570;2023-05-12T02:57:50;101801.81;;;11.56;100.00
20909;BME280;10614;53.198;6.570;2023-05-12T02:59:52;101790.66;;;11.48;100.00
20909;BME280;10614;53.198;6.570;2023-05-12T03:01:53;101801.78;;;11.57;100.00
20909;BME280;10614;53.198;6.570;2023-05-12T03:03:55;101807.03;;;11.59;100.00
20909;BME280;10614;53.198;6.570;2023-05-12T03:05:59;101799.16;;;11.57;100.00
20909;BME280;10614;53.198;6.570;2023-05-12T03:08:00;101809.56;;;11.62;100.00
20909;BME280;10614;53.198;6.570;2023-05-12T03:10:03;101814.00;;;11.61;100.00
20909;BME280;10614;53.198;6.570;2023-05-12T03:12:06;101806.00;;;11.63;100.00
20909;BME280;10614;53.198;6.570;2023-05-12T03:14:09;101804.41;;;11.59;100.00
20909;BME280;10614;53.198;6.570;2023-05-12T03:16:12;101799.41;;;11.48;100.00
20909;BME280;10614;53.198;6.570;2023-05-12T03:18:16;101811.38;;;11.60;100.00
20909;BME280;10614;53.198;6.570;2023-05-12T03:20:18;101820.16;;;11.60;100.00
20909;BME280;10614;53.198;6.570;2023-05-12T03:22:21;101816.66;;;11.60;100.00
20909;BME280;10614;53.198;6.570;2023-05-12T03:24:24;101815.75;;;11.61;100.00
20909;BME280;10614;53.198;6.570;2023-05-12T03:26:25;101802.75;;;11.55;100.00
20909;BME280;10614;53.198;6.570;2023-05-12T03:28:27;101811.38;;;11.60;100.00
20909;BME280;10614;53.198;6.570;2023-05-12T03:30:29;101817.63;;;11.57;100.00
20909;BME280;10614;53.198;6.570;2023-05-12T03:32:32;101817.66;;;11.56;100.00
20909;BME280;10614;53.198;6.570;2023-05-12T03:34:34;101810.72;;;11.52;100.00
20909;BME280;10614;53.198;6.570;2023-05-12T03:36:37;101815.94;;;11.55;100.00
20909;BME280;10614;53.198;6.570;2023-05-12T03:38:42;101810.81;;;11.49;100.00
20909;BME280;10614;53.198;6.570;2023-05-12T03:40:44;101814.28;;;11.51;100.00
20909;BME280;10614;53.198;6.570;2023-05-12T03:42:52;101791.81;;;11.37;100.00
20909;BME280;10614;53.198;6.570;2023-05-12T03:44:54;101813.53;;;11.47;100.00
20909;BME280;10614;53.198;6.570;2023-05-12T03:46:56;101822.31;;;11.46;100.00
20909;BME280;10614;53.198;6.570;2023-05-12T03:48:59;101796.25;;;11.35;100.00
20909;BME280;10614;53.198;6.570;2023-05-12T03:51:01;101819.69;;;11.46;100.00
20909;BME280;10614;53.198;6.570;2023-05-12T03:53:03;101822.34;;;11.45;100.00
20909;BME280;10614;53.198;6.570;2023-05-12T03:55:07;101801.53;;;11.35;100.00
20909;BME280;10614;53.198;6.570;2023-05-12T03:57:11;101825.78;;;11.48;100.00
20909;BME280;10614;53.198;6.570;2023-05-12T03:59:12;101823.97;;;11.50;100.00
20909;BME280;10614;53.198;6.570;2023-05-12T04:01:15;101826.53;;;11.52;100.00
20909;BME280;10614;53.198;6.570;2023-05-12T04:03:17;101823.03;;;11.53;100.00
20909;BME280;10614;53.198;6.570;2023-05-12T04:05:19;101826.50;;;11.53;100.00
20909;BME280;10614;53.198;6.570;2023-05-12T04:07:21;101822.91;;;11.56;100.00
20909;BME280;10614;53.198;6.570;2023-05-12T04:09:23;101832.47;;;11.60;100.00
20909;BME280;10614;53.198;6.570;2023-05-12T04:11:26;101828.03;;;11.62;100.00
20909;BME280;10614;53.198;6.570;2023-05-12T04:13:29;101831.50;;;11.64;100.00
20909;BME280;10614;53.198;6.570;2023-05-12T04:15:32;101820.03;;;11.65;100.00
20909;BME280;10614;53.198;6.570;2023-05-12T04:17:34;101805.28;;;11.58;100.00
20909;BME280;10614;53.198;6.570;2023-05-12T04:19:36;101821.69;;;11.68;100.00
20909;BME280;10614;53.198;6.570;2023-05-12T04:21:38;101818.22;;;11.67;100.00
20909;BME280;10614;53.198;6.570;2023-05-12T04:23:39;101817.34;;;11.67;100.00
20909;BME280;10614;53.198;6.570;2023-05-12T04:25:41;101832.94;;;11.74;100.00
20909;BME280;10614;53.198;6.570;2023-05-12T04:27:45;101824.19;;;11.74;100.00
20909;BME280;10614;53.198;6.570;2023-05-12T04:29:46;101825.97;;;11.73;100.00
20909;BME280;10614;53.198;6.570;2023-05-12T04:31:49;101829.34;;;11.77;100.00
20909;BME280;10614;53.198;6.570;2023-05-12T04:33:51;101836.31;;;11.79;100.00
20909;BME280;10614;53.198;6.570;2023-05-12T04:35:55;101834.47;;;11.83;100.00
20909;BME280;10614;53.198;6.570;2023-05-12T04:37:57;101822.13;;;11.83;100.00
20909;BME280;10614;53.198;6.570;2023-05-12T04:40:00;101830.88;;;11.87;100.00
20909;BME280;10614;53.198;6.570;2023-05-12T04:42:02;101828.22;;;11.87;100.00
20909;BME280;10614;53.198;6.570;2023-05-12T04:44:06;101829.00;;;11.89;100.00
20909;BME280;10614;53.198;6.570;2023-05-12T04:46:08;101829.09;;;11.88;100.00
20909;BME280;10614;53.198;6.570;2023-05-12T04:48:10;101835.03;;;11.94;100.00
20909;BME280;10614;53.198;6.570;2023-05-12T04:50:12;101832.28;;;11.99;100.00
20909;BME280;10614;53.198;6.570;2023-05-12T04:52:14;101838.34;;;12.01;100.00
20909;BME280;10614;53.198;6.570;2023-05-12T04:54:16;101842.72;;;12.02;100.00
20909;BME280;10614;53.198;6.570;2023-05-12T04:56:18;101841.91;;;12.00;100.00
20909;BME280;10614;53.198;6.570;2023-05-12T04:58:21;101831.53;;;11.94;100.00
20909;BME280;10614;53.198;6.570;2023-05-12T05:00:24;101860.19;;;12.06;100.00
20909;BME280;10614;53.198;6.570;2023-05-12T05:02:26;101847.00;;;12.06;100.00
20909;BME280;10614;53.198;6.570;2023-05-12T05:04:28;101853.00;;;12.11;100.00
20909;BME280;10614;53.198;6.570;2023-05-12T05:06:32;101859.00;;;12.16;100.00
20909;BME280;10614;53.198;6.570;2023-05-12T05:08:34;101858.16;;;12.16;100.00
20909;BME280;10614;53.198;6.570;2023-05-12T05:10:36;101871.13;;;12.22;100.00
20909;BME280;10614;53.198;6.570;2023-05-12T05:12:38;101869.41;;;12.21;100.00
20909;BME280;10614;53.198;6.570;2023-05-12T05:14:42;101854.72;;;12.12;100.00
20909;BME280;10614;53.198;6.570;2023-05-12T05:16:45;101885.16;;;12.24;100.00
20909;BME280;10614;53.198;6.570;2023-05-12T05:18:47;101874.59;;;12.24;100.00
20909;BME280;10614;53.198;6.570;2023-05-12T05:20:49;101876.25;;;12.28;100.00
20909;BME280;10614;53.198;6.570;2023-05-12T05:22:51;101885.84;;;12.31;100.00
20909;BME280;10614;53.198;6.570;2023-05-12T05:24:53;101879.69;;;12.30;100.00
20909;BME280;10614;53.198;6.570;2023-05-12T05:26:55;101887.47;;;12.35;100.00
20909;BME280;10614;53.198;6.570;2023-05-12T05:28:57;101870.13;;;12.26;100.00
20909;BME280;10614;53.198;6.570;2023-05-12T05:31:00;101882.09;;;12.38;100.00
20909;BME280;10614;53.198;6.570;2023-05-12T05:33:03;101879.41;;;12.39;100.00
20909;BME280;10614;53.198;6.570;2023-05-12T05:35:05;101890.72;;;12.43;100.00
20909;BME280;10614;53.198;6.570;2023-05-12T05:37:08;101875.25;;;12.32;100.00
20909;BME280;10614;53.198;6.570;2023-05-12T05:39:09;101873.44;;;12.34;100.00
20909;BME280;10614;53.198;6.570;2023-05-12T05:41:12;101889.81;;;12.45;100.00
20909;BME280;10614;53.198;6.570;2023-05-12T05:43:14;101893.22;;;12.48;100.00
20909;BME280;10614;53.198;6.570;2023-05-12T05:45:16;101895.72;;;12.52;100.00
20909;BME280;10614;53.198;6.570;2023-05-12T05:47:18;101882.66;;;12.48;100.00
20909;BME280;10614;53.198;6.570;2023-05-12T05:49:21;101888.72;;;12.51;100.00
20909;BME280;10614;53.198;6.570;2023-05-12T05:51:24;101893.97;;;12.53;100.00
20909;BME280;10614;53.198;6.570;2023-05-12T05:53:26;101897.34;;;12.58;100.00
20909;BME280;10614;53.198;6.570;2023-05-12T05:55:28;101882.44;;;12.55;100.00
20909;BME280;10614;53.198;6.570;2023-05-12T05:57:30;101874.69;;;12.51;100.00
20909;BME280;10614;53.198;6.570;2023-05-12T05:59:32;101895.25;;;12.67;100.00
20909;BME280;10614;53.198;6.570;2023-05-12T06:01:34;101896.00;;;12.71;100.00
20909;BME280;10614;53.198;6.570;2023-05-12T06:03:36;101900.25;;;12.77;100.00
20909;BME280;10614;53.198;6.570;2023-05-12T06:05:39;101895.69;;;12.82;100.00
20909;BME280;10614;53.198;6.570;2023-05-12T06:07:41;101901.75;;;12.85;100.00
20909;BME280;10614;53.198;6.570;2023-05-12T06:09:43;101896.34;;;12.88;100.00
20909;BME280;10614;53.198;6.570;2023-05-12T06:11:45;101901.47;;;12.93;100.00
20909;BME280;10614;53.198;6.570;2023-05-12T06:13:48;101906.66;;;12.96;100.00
20909;BME280;10614;53.198;6.570;2023-05-12T06:15:50;101928.44;;;13.04;100.00
20909;BME280;10614;53.198;6.570;2023-05-12T06:17:52;101931.00;;;13.06;100.00
20909;BME280;10614;53.198;6.570;2023-05-12T06:19:54;101927.50;;;13.05;100.00
20909;BME280;10614;53.198;6.570;2023-05-12T06:21:57;101939.72;;;13.09;100.00
20909;BME280;10614;53.198;6.570;2023-05-12T06:23:59;101926.38;;;13.13;100.00
20909;BME280;10614;53.198;6.570;2023-05-12T06:26:00;101917.44;;;13.17;100.00
20909;BME280;10614;53.198;6.570;2023-05-12T06:28:02;101934.84;;;13.22;100.00
20909;BME280;10614;53.198;6.570;2023-05-12T06:30:05;101923.44;;;13.22;100.00
20909;BME280;10614;53.198;6.570;2023-05-12T06:32:07;101928.41;;;13.33;100.00
20909;BME280;10614;53.198;6.570;2023-05-12T06:34:09;101939.28;;;13.48;100.00
20909;BME280;10614;53.198;6.570;2023-05-12T06:36:11;101923.53;;;13.45;100.00
20909;BME280;10614;53.198;6.570;2023-05-12T06:38:15;101931.81;;;13.61;100.00
20909;BME280;10614;53.198;6.570;2023-05-12T06:40:17;101932.47;;;13.68;100.00
20909;BME280;10614;53.198;6.570;2023-05-12T06:42:19;101930.38;;;13.76;100.00
20909;BME280;10614;53.198;6.570;2023-05-12T06:44:21;101944.22;;;13.84;100.00
20909;BME280;10614;53.198;6.570;2023-05-12T06:46:23;101937.09;;;13.86;100.00
20909;BME280;10614;53.198;6.570;2023-05-12T06:48:25;101937.66;;;13.94;100.00
20909;BME280;10614;53.198;6.570;2023-05-12T06:50:27;101936.50;;;14.02;100.00
20909;BME280;10614;53.198;6.570;2023-05-12T06:52:29;101938.78;;;14.12;100.00
20909;BME280;10614;53.198;6.570;2023-05-12T06:54:33;101938.47;;;14.20;100.00
20909;BME280;10614;53.198;6.570;2023-05-12T06:56:37;101925.41;;;14.15;100.00
20909;BME280;10614;53.198;6.570;2023-05-12T06:58:39;101936.34;;;14.30;100.00
20909;BME280;10614;53.198;6.570;2023-05-12T07:00:41;101924.75;;;14.32;100.00
20909;BME280;10614;53.198;6.570;2023-05-12T07:02:44;101921.22;;;14.33;100.00
20909;BME280;10614;53.198;6.570;2023-05-12T07:04:46;101931.31;;;14.46;100.00
20909;BME280;10614;53.198;6.570;2023-05-12T07:06:48;101926.03;;;14.46;100.00
20909;BME280;10614;53.198;6.570;2023-05-12T07:08:50;101925.22;;;14.44;100.00
20909;BME280;10614;53.198;6.570;2023-05-12T07:10:53;101940.88;;;14.50;100.00
20909;BME280;10614;53.198;6.570;2023-05-12T07:12:56;101955.78;;;14.54;100.00
20909;BME280;10614;53.198;6.570;2023-05-12T07:14:58;101953.91;;;14.56;100.00
20909;BME280;10614;53.198;6.570;2023-05-12T07:17:00;101954.72;;;14.58;100.00
20909;BME280;10614;53.198;6.570;2023-05-12T07:19:05;101948.38;;;14.62;100.00
20909;BME280;10614;53.198;6.570;2023-05-12T07:21:08;101942.13;;;14.63;100.00
20909;BME280;10614;53.198;6.570;2023-05-12T07:23:10;101945.25;;;14.74;100.00
20909;BME280;10614;53.198;6.570;2023-05-12T07:25:12;101955.47;;;14.84;100.00
20909;BME280;10614;53.198;6.570;2023-05-12T07:27:16;101956.91;;;14.92;100.00
20909;BME280;10614;53.198;6.570;2023-05-12T07:29:18;101952.13;;;15.01;100.00
20909;BME280;10614;53.198;6.570;2023-05-12T07:31:20;101957.00;;;15.11;100.00
20909;BME280;10614;53.198;6.570;2023-05-12T07:33:22;101956.69;;;15.19;100.00
20909;BME280;10614;53.198;6.570;2023-05-12T07:35:25;101961.56;;;15.30;100.00
20909;BME280;10614;53.198;6.570;2023-05-12T07:37:27;101964.47;;;15.44;100.00
20909;BME280;10614;53.198;6.570;2023-05-12T07:39:29;101954.41;;;15.52;100.00
20909;BME280;10614;53.198;6.570;2023-05-12T07:41:31;101952.13;;;15.63;100.00
20909;BME280;10614;53.198;6.570;2023-05-12T07:43:37;101970.81;;;15.82;100.00
20909;BME280;10614;53.198;6.570;2023-05-12T07:45:39;101973.00;;;15.93;100.00
20909;BME280;10614;53.198;6.570;2023-05-12T07:47:41;101955.22;;;15.95;100.00
20909;BME280;10614;53.198;6.570;2023-05-12T07:49:43;101968.88;;;16.07;100.00
20909;BME280;10614;53.198;6.570;2023-05-12T07:51:46;101967.44;;;16.18;100.00
20909;BME280;10614;53.198;6.570;2023-05-12T07:53:48;101968.91;;;16.25;100.00
20909;BME280;10614;53.198;6.570;2023-05-12T07:55:53;101981.75;;;16.35;100.00
20909;BME280;10614;53.198;6.570;2023-05-12T07:57:55;101975.28;;;16.40;100.00
20909;BME280;10614;53.198;6.570;2023-05-12T07:59:59;101982.88;;;16.48;100.00
20909;BME280;10614;53.198;6.570;2023-05-12T08:02:01;101980.91;;;16.53;100.00
20909;BME280;10614;53.198;6.570;2023-05-12T08:04:03;101972.25;;;16.48;100.00
20909;BME280;10614;53.198;6.570;2023-05-12T08:06:06;101983.25;;;16.59;100.00
20909;BME280;10614;53.198;6.570;2023-05-12T08:08:09;101991.31;;;16.58;100.00
20909;BME280;10614;53.198;6.570;2023-05-12T08:10:17;101970.81;;;16.60;100.00
20909;BME280;10614;53.198;6.570;2023-05-12T08:12:21;101981.00;;;16.69;100.00
20909;BME280;10614;53.198;6.570;2023-05-12T08:14:23;101983.34;;;16.77;100.00
20909;BME280;10614;53.198;6.570;2023-05-12T08:16:26;101997.22;;;16.83;100.00
20909;BME280;10614;53.198;6.570;2023-05-12T08:18:28;101997.94;;;16.87;100.00
20909;BME280;10614;53.198;6.570;2023-05-12T08:20:30;102001.22;;;16.92;100.00
20909;BME280;10614;53.198;6.570;2023-05-12T08:22:32;102000.88;;;17.00;100.00
20909;BME280;10614;53.198;6.570;2023-05-12T08:24:34;102002.53;;;17.02;100.00
20909;BME280;10614;53.198;6.570;2023-05-12T08:26:36;102003.16;;;17.07;100.00
20909;BME280;10614;53.198;6.570;2023-05-12T08:28:38;101988.91;;;17.08;100.00
20909;BME280;10614;53.198;6.570;2023-05-12T08:30:40;101994.56;;;17.20;100.00
20909;BME280;10614;53.198;6.570;2023-05-12T08:32:45;101999.19;;;17.34;100.00
20909;BME280;10614;53.198;6.570;2023-05-12T08:34:47;101986.44;;;17.40;100.00
20909;BME280;10614;53.198;6.570;2023-05-12T08:36:53;101985.28;;;17.46;100.00
20909;BME280;10614;53.198;6.570;2023-05-12T08:38:55;101984.72;;;17.57;100.00
20909;BME280;10614;53.198;6.570;2023-05-12T08:41:10;101997.25;;;17.72;100.00
20909;BME280;10614;53.198;6.570;2023-05-12T08:43:21;101976.28;;;17.66;100.00
20909;BME280;10614;53.198;6.570;2023-05-12T08:45:24;101987.94;;;17.81;100.00
20909;BME280;10614;53.198;6.570;2023-05-12T08:47:26;101986.53;;;17.91;100.00
20909;BME280;10614;53.198;6.570;2023-05-12T08:49:32;101986.75;;;18.04;100.00
20909;BME280;10614;53.198;6.570;2023-05-12T08:51:36;101978.69;;;18.05;100.00
20909;BME280;10614;53.198;6.570;2023-05-12T08:53:40;101988.06;;;18.12;100.00
20909;BME280;10614;53.198;6.570;2023-05-12T08:55:42;101990.38;;;18.19;100.00
20909;BME280;10614;53.198;6.570;2023-05-12T08:57:46;101981.53;;;18.18;100.00
20909;BME280;10614;53.198;6.570;2023-05-12T08:59:48;101991.41;;;18.16;100.00
20909;BME280;10614;53.198;6.570;2023-05-12T09:01:53;101998.63;;;18.14;100.00
20909;BME280;10614;53.198;6.570;2023-05-12T09:03:55;101998.63;;;18.14;100.00
20909;BME280;10614;53.198;6.570;2023-05-12T09:06:01;102005.59;;;18.17;100.00
20909;BME280;10614;53.198;6.570;2023-05-12T09:08:04;102012.84;;;18.14;100.00
20909;BME280;10614;53.198;6.570;2023-05-12T09:10:10;102012.13;;;18.11;100.00
20909;BME280;10614;53.198;6.570;2023-05-12T09:12:17;102003.69;;;18.03;100.00
20909;BME280;10614;53.198;6.570;2023-05-12T09:14:23;102003.16;;;17.96;100.00
20909;BME280;10614;53.198;6.570;2023-05-12T09:16:28;102005.63;;;17.99;100.00
20909;BME280;10614;53.198;6.570;2023-05-12T09:18:32;102010.66;;;17.88;100.00
20909;BME280;10614;53.198;6.570;2023-05-12T09:20:44;102018.25;;;17.78;100.00
20909;BME280;10614;53.198;6.570;2023-05-12T09:22:47;102013.09;;;17.75;100.00
20909;BME280;10614;53.198;6.570;2023-05-12T09:24:49;102008.06;;;17.69;100.00
20909;BME280;10614;53.198;6.570;2023-05-12T09:26:53;102011.44;;;17.72;100.00
20909;BME280;10614;53.198;6.570;2023-05-12T09:29:04;102021.94;;;17.76;100.00
20909;BME280;10614;53.198;6.570;2023-05-12T09:31:14;102005.63;;;17.64;100.00
20909;BME280;10614;53.198;6.570;2023-05-12T09:33:16;102027.50;;;17.71;100.00
20909;BME280;10614;53.198;6.570;2023-05-12T09:35:18;102020.13;;;17.76;100.00
20909;BME280;10614;53.198;6.570;2023-05-12T09:37:29;102020.53;;;17.86;100.00
20909;BME280;10614;53.198;6.570;2023-05-12T09:39:33;102026.94;;;17.99;100.00
20909;BME280;10614;53.198;6.570;2023-05-12T09:41:35;102024.59;;;18.10;100.00
20909;BME280;10614;53.198;6.570;2023-05-12T09:43:43;102025.38;;;18.28;100.00
20909;BME280;10614;53.198;6.570;2023-05-12T09:45:47;102027.66;;;18.36;100.00
20909;BME280;10614;53.198;6.570;2023-05-12T09:47:50;102031.22;;;18.52;100.00
20909;BME280;10614;53.198;6.570;2023-05-12T09:49:51;102043.69;;;18.68;100.00
20909;BME280;10614;53.198;6.570;2023-05-12T09:51:54;102020.97;;;18.78;100.00
20909;BME280;10614;53.198;6.570;2023-05-12T09:53:58;102028.78;;;18.81;100.00
20909;BME280;10614;53.198;6.570;2023-05-12T09:56:02;102022.59;;;18.81;100.00
20909;BME280;10614;53.198;6.570;2023-05-12T09:58:08;102027.81;;;18.82;100.00
20909;BME280;10614;53.198;6.570;2023-05-12T10:00:12;102021.03;;;18.76;100.00
20909;BME280;10614;53.198;6.570;2023-05-12T10:02:18;102028.28;;;18.73;100.00
20909;BME280;10614;53.198;6.570;2023-05-12T10:04:20;102029.50;;;18.67;100.00
20909;BME280;10614;53.198;6.570;2023-05-12T10:06:25;102016.75;;;18.56;100.00
20909;BME280;10614;53.198;6.570;2023-05-12T10:08:31;102029.34;;;18.54;100.00
20909;BME280;10614;53.198;6.570;2023-05-12T10:10:36;102030.69;;;18.46;100.00
20909;BME280;10614;53.198;6.570;2023-05-12T10:12:40;102024.66;;;18.42;100.00
20909;BME280;10614;53.198;6.570;2023-05-12T10:14:42;102031.75;;;18.59;100.00
20909;BME280;10614;53.198;6.570;2023-05-12T10:16:45;102035.50;;;18.88;100.00
20909;BME280;10614;53.198;6.570;2023-05-12T10:18:47;102023.00;;;19.05;100.00
20909;BME280;10614;53.198;6.570;2023-05-12T10:20:55;102039.53;;;19.27;100.00
20909;BME280;10614;53.198;6.570;2023-05-12T10:22:58;102036.22;;;19.38;100.00
20909;BME280;10614;53.198;6.570;2023-05-12T10:25:01;102022.19;;;19.34;100.00
20909;BME280;10614;53.198;6.570;2023-05-12T10:27:04;102013.34;;;19.34;100.00
20909;BME280;10614;53.198;6.570;2023-05-12T10:29:11;102030.59;;;19.43;100.00
20909;BME280;10614;53.198;6.570;2023-05-12T10:31:14;102033.28;;;19.43;100.00
20909;BME280;10614;53.198;6.570;2023-05-12T10:33:20;102026.75;;;19.32;100.00
20909;BME280;10614;53.198;6.570;2023-05-12T10:35:30;102034.31;;;19.40;100.00
20909;BME280;10614;53.198;6.570;2023-05-12T10:37:37;102024.09;;;19.32;100.00